createdAt,value
2018-04-13T00:00:25.718Z,9.00
2018-04-13T00:02:54.260Z,8.90
2018-04-13T00:05:22.079Z,8.90
2018-04-13T00:07:50.003Z,9.00
2018-04-13T00:10:17.781Z,9.00
2018-04-13T00:12:46.309Z,9.00
2018-04-13T00:15:14.101Z,8.90
2018-04-13T00:17:42.048Z,9.00
2018-04-13T00:20:09.940Z,9.00
2018-04-13T00:22:37.783Z,9.00
2018-04-13T00:25:05.778Z,9.00
2018-04-13T00:27:33.590Z,9.00
2018-04-13T00:30:01.367Z,9.00
2018-04-13T00:32:29.117Z,9.00
2018-04-13T00:34:56.989Z,9.00
2018-04-13T00:37:24.792Z,9.00
2018-04-13T00:39:52.669Z,9.00
2018-04-13T00:42:20.449Z,8.90
2018-04-13T00:44:48.202Z,8.90
2018-04-13T00:47:16.027Z,8.90
2018-04-13T00:49:44.765Z,8.80
2018-04-13T00:52:12.583Z,8.80
2018-04-13T00:54:41.317Z,8.70
2018-04-13T00:57:09.124Z,8.70
2018-04-13T00:59:36.977Z,8.80
2018-04-13T01:02:05.525Z,8.70
2018-04-13T01:04:33.318Z,8.70
2018-04-13T01:07:01.832Z,8.80
2018-04-13T01:09:29.603Z,8.80
2018-04-13T01:11:57.354Z,8.80
2018-04-13T01:14:25.295Z,8.90
2018-04-13T01:16:53.812Z,8.90
2018-04-13T01:19:21.741Z,8.80
2018-04-13T01:21:51.216Z,8.80
2018-04-13T01:24:18.980Z,8.80
2018-04-13T01:26:46.928Z,8.80
2018-04-13T01:29:14.785Z,8.90
2018-04-13T01:31:42.766Z,8.90
2018-04-13T01:34:10.725Z,8.90
2018-04-13T01:36:38.548Z,8.90
2018-04-13T01:39:06.432Z,8.90
2018-04-13T01:41:34.299Z,8.80
2018-04-13T01:44:02.087Z,8.80
2018-04-13T01:46:30.753Z,8.90
2018-04-13T01:48:59.276Z,8.80
2018-04-13T01:51:27.135Z,8.80
2018-04-13T01:53:55.029Z,8.90
2018-04-13T01:56:24.546Z,8.80
2018-04-13T01:58:52.333Z,8.80
2018-04-13T02:01:20.273Z,8.70
2018-04-13T02:03:48.038Z,8.70
2018-04-13T02:06:15.798Z,8.70
2018-04-13T02:08:43.583Z,8.70
2018-04-13T02:11:11.447Z,8.70
2018-04-13T02:13:40.136Z,8.60
2018-04-13T02:16:08.720Z,8.60
2018-04-13T02:18:37.285Z,8.60
2018-04-13T02:21:05.157Z,8.60
2018-04-13T02:23:33.017Z,8.60
2018-04-13T02:26:00.856Z,8.50
2018-04-13T02:28:28.674Z,8.50
2018-04-13T02:30:57.293Z,8.50
2018-04-13T02:33:25.152Z,8.50
2018-04-13T02:35:53.050Z,8.50
2018-04-13T02:38:20.851Z,8.50
2018-04-13T02:40:48.669Z,8.40
2018-04-13T02:43:16.508Z,8.40
2018-04-13T02:45:44.297Z,8.30
2018-04-13T02:48:12.057Z,8.30
2018-04-13T02:50:39.889Z,8.40
2018-04-13T02:53:08.485Z,8.40
2018-04-13T02:55:36.395Z,8.40
2018-04-13T02:58:05.004Z,8.50
2018-04-13T03:00:32.774Z,8.50
2018-04-13T03:03:00.640Z,8.50
2018-04-13T03:05:28.510Z,8.50
2018-04-13T03:07:56.289Z,8.50
2018-04-13T03:10:24.809Z,8.50
2018-04-13T03:12:52.616Z,8.40
2018-04-13T03:15:20.373Z,8.50
2018-04-13T03:17:48.299Z,8.50
2018-04-13T03:20:16.065Z,8.40
2018-04-13T03:22:43.876Z,8.40
2018-04-13T03:25:11.689Z,8.40
2018-04-13T03:27:39.509Z,8.40
2018-04-13T03:30:07.346Z,8.30
2018-04-13T03:32:35.115Z,8.30
2018-04-13T03:35:03.001Z,8.30
2018-04-13T03:37:30.705Z,8.30
2018-04-13T03:39:59.343Z,8.20
2018-04-13T03:42:27.237Z,8.20
2018-04-13T03:44:55.727Z,8.20
2018-04-13T03:47:24.366Z,8.20
2018-04-13T03:49:52.176Z,8.20
2018-04-13T03:52:20.010Z,8.20
2018-04-13T03:54:47.770Z,8.20
2018-04-13T03:57:15.602Z,8.20
2018-04-13T03:59:47.289Z,8.20
2018-04-13T04:02:15.193Z,8.20
2018-04-13T04:04:43.761Z,8.30
2018-04-13T04:07:11.541Z,8.30
2018-04-13T04:09:40.134Z,8.30
2018-04-13T04:12:08.133Z,8.30
2018-04-13T04:14:36.004Z,8.30
2018-04-13T04:17:03.785Z,8.30
2018-04-13T04:19:43.467Z,8.30
2018-04-13T04:22:23.982Z,8.30
2018-04-13T04:25:03.635Z,8.30
2018-04-13T04:27:31.378Z,8.30
2018-04-13T04:29:59.118Z,8.30
2018-04-13T04:32:26.932Z,8.30
2018-04-13T04:34:54.729Z,8.30
2018-04-13T04:37:23.284Z,8.30
2018-04-13T04:39:51.360Z,8.30
2018-04-13T04:42:19.221Z,8.30
2018-04-13T04:44:46.952Z,8.30
2018-04-13T04:47:15.322Z,8.30
2018-04-13T04:49:43.212Z,8.20
2018-04-13T04:52:11.045Z,8.30
2018-04-13T04:54:39.762Z,8.20
2018-04-13T04:57:07.553Z,8.20
2018-04-13T04:59:35.460Z,8.20
2018-04-13T05:02:03.242Z,8.30
2018-04-13T05:04:30.957Z,8.30
2018-04-13T05:06:58.703Z,8.30
2018-04-13T05:09:26.569Z,8.40
2018-04-13T05:11:54.393Z,8.40
2018-04-13T05:14:22.975Z,8.40
2018-04-13T05:16:50.767Z,8.40
2018-04-13T05:19:18.528Z,8.40
2018-04-13T05:21:46.327Z,8.40
2018-04-13T05:24:14.157Z,8.30
2018-04-13T05:26:41.934Z,8.30
2018-04-13T05:29:09.727Z,8.40
2018-04-13T05:31:37.631Z,8.40
2018-04-13T05:34:06.240Z,8.40
2018-04-13T05:36:34.040Z,8.40
2018-04-13T05:39:02.006Z,8.40
2018-04-13T05:41:29.786Z,8.40
2018-04-13T05:43:57.529Z,8.50
2018-04-13T05:46:25.456Z,8.50
2018-04-13T05:48:53.188Z,8.50
2018-04-13T05:51:20.984Z,8.50
2018-04-13T05:53:48.872Z,8.50
2018-04-13T05:56:16.639Z,8.50
2018-04-13T05:58:44.453Z,8.50
2018-04-13T06:01:12.294Z,8.50
2018-04-13T06:03:40.104Z,8.50
2018-04-13T06:06:08.722Z,8.50
2018-04-13T06:08:36.606Z,8.50
2018-04-13T06:11:04.413Z,8.60
2018-04-13T06:13:32.957Z,8.60
2018-04-13T06:16:00.786Z,8.60
2018-04-13T06:18:28.582Z,8.70
2018-04-13T06:20:56.318Z,8.70
2018-04-13T06:23:24.138Z,8.70
2018-04-13T06:25:51.860Z,8.80
2018-04-13T06:28:19.666Z,8.80
2018-04-13T06:30:47.541Z,8.80
2018-04-13T06:33:15.333Z,9.00
2018-04-13T06:35:43.161Z,9.10
2018-04-13T06:38:11.020Z,9.20
2018-04-13T06:40:38.780Z,9.30
2018-04-13T06:43:06.554Z,9.40
2018-04-13T06:45:34.373Z,9.50
2018-04-13T06:48:02.170Z,9.60
2018-04-13T06:50:30.069Z,9.70
2018-04-13T06:52:58.673Z,9.80
2018-04-13T06:55:27.304Z,10.00
2018-04-13T06:57:55.892Z,10.20
2018-04-13T07:00:23.822Z,10.20
2018-04-13T07:02:51.724Z,10.30
2018-04-13T07:05:19.551Z,10.30
2018-04-13T07:07:47.415Z,10.40
2018-04-13T07:10:15.269Z,10.40
2018-04-13T07:12:43.806Z,10.40
2018-04-13T07:15:11.657Z,10.40
2018-04-13T07:17:39.550Z,10.40
2018-04-13T07:20:07.303Z,10.50
2018-04-13T07:22:35.170Z,10.50
2018-04-13T07:25:02.947Z,10.70
2018-04-13T07:27:30.764Z,10.70
2018-04-13T07:29:58.639Z,10.90
2018-04-13T07:32:26.415Z,11.00
2018-04-13T07:34:54.267Z,11.20
2018-04-13T07:37:22.183Z,11.40
2018-04-13T07:39:50.080Z,11.70
2018-04-13T07:42:18.706Z,12.30
2018-04-13T07:44:46.606Z,12.30
2018-04-13T07:47:14.409Z,12.50
2018-04-13T07:49:42.233Z,12.70
2018-04-13T07:52:10.037Z,12.80
2018-04-13T07:54:38.630Z,13.20
2018-04-13T07:57:06.422Z,13.20
2018-04-13T07:59:34.285Z,13.50
2018-04-13T08:02:02.069Z,13.60
2018-04-13T08:04:29.889Z,14.00
2018-04-13T08:06:57.734Z,14.20
2018-04-13T08:09:26.400Z,13.90
2018-04-13T08:11:54.482Z,13.90
2018-04-13T08:14:22.096Z,13.60
2018-04-13T08:16:50.450Z,13.30
2018-04-13T08:19:18.485Z,13.10
2018-04-13T08:21:46.487Z,13.00
2018-04-13T08:24:14.979Z,12.90
2018-04-13T08:26:43.176Z,12.90
2018-04-13T08:29:11.035Z,13.00
2018-04-13T08:31:38.819Z,12.90
2018-04-13T08:34:06.660Z,13.00
2018-04-13T08:36:34.514Z,13.00
2018-04-13T08:39:02.363Z,12.80
2018-04-13T08:41:30.877Z,12.30
2018-04-13T08:43:58.814Z,12.20
2018-04-13T08:46:27.445Z,11.90
2018-04-13T08:48:55.330Z,11.90
2018-04-13T08:51:23.107Z,12.00
2018-04-13T08:53:51.710Z,12.30
2018-04-13T08:56:20.312Z,12.60
2018-04-13T08:58:48.920Z,13.00
2018-04-13T09:01:16.896Z,12.90
2018-04-13T09:03:44.814Z,13.40
2018-04-13T09:06:13.486Z,14.00
2018-04-13T09:08:41.266Z,13.90
2018-04-13T09:11:09.866Z,14.80
2018-04-13T09:13:38.557Z,15.30
2018-04-13T09:16:06.442Z,15.30
2018-04-13T09:18:34.378Z,15.50
2018-04-13T09:21:02.929Z,15.60
2018-04-13T09:23:30.750Z,15.70
2018-04-13T09:25:58.552Z,15.90
2018-04-13T09:28:26.342Z,16.20
2018-04-13T09:30:55.145Z,16.60
2018-04-13T09:33:23.739Z,16.80
2018-04-13T09:35:52.328Z,17.00
2018-04-13T09:38:20.144Z,17.00
2018-04-13T09:40:47.942Z,17.10
2018-04-13T09:43:16.550Z,17.30
2018-04-13T09:45:44.514Z,17.20
2018-04-13T09:48:12.367Z,17.50
2018-04-13T09:50:41.039Z,17.70
2018-04-13T09:53:08.879Z,17.60
2018-04-13T09:55:36.706Z,17.80
2018-04-13T09:58:04.660Z,17.40
2018-04-13T10:00:32.479Z,17.20
2018-04-13T10:03:03.280Z,16.80
2018-04-13T10:05:31.107Z,16.60
2018-04-13T10:07:58.936Z,16.00
2018-04-13T10:10:27.718Z,15.50
2018-04-13T10:12:55.599Z,15.10
2018-04-13T10:15:23.378Z,14.50
2018-04-13T10:17:51.223Z,14.10
2018-04-13T10:20:19.040Z,13.80
2018-04-13T10:22:46.865Z,13.50
2018-04-13T10:25:14.686Z,13.50
2018-04-13T10:27:42.534Z,13.60
2018-04-13T10:30:11.170Z,14.50
2018-04-13T10:32:38.956Z,14.40
2018-04-13T10:35:06.797Z,15.10
2018-04-13T10:37:34.553Z,15.20
2018-04-13T10:40:02.419Z,15.20
2018-04-13T10:42:30.300Z,15.20
2018-04-13T10:44:58.130Z,15.20
2018-04-13T10:47:25.930Z,15.20
2018-04-13T10:49:53.778Z,15.50
2018-04-13T10:52:21.641Z,15.50
2018-04-13T10:54:49.647Z,15.50
2018-04-13T10:57:17.551Z,15.20
2018-04-13T10:59:46.165Z,15.40
2018-04-13T11:02:14.069Z,15.40
2018-04-13T11:04:41.926Z,15.60
2018-04-13T11:07:09.731Z,15.70
2018-04-13T11:09:38.296Z,15.40
2018-04-13T11:12:06.138Z,15.40
2018-04-13T11:17:08.694Z,15.10
2018-04-13T11:19:36.547Z,15.10
2018-04-13T11:22:05.369Z,15.30
2018-04-13T11:24:33.212Z,15.20
2018-04-13T11:27:01.015Z,15.40
2018-04-13T11:29:28.794Z,15.50
2018-04-13T11:31:56.634Z,15.70
2018-04-13T11:34:24.508Z,15.80
2018-04-13T11:36:52.294Z,15.80
2018-04-13T11:39:20.221Z,15.80
2018-04-13T11:41:48.132Z,15.80
2018-04-13T11:44:15.957Z,15.60
2018-04-13T11:46:43.857Z,15.50
2018-04-13T11:49:11.853Z,15.30
2018-04-13T11:51:40.554Z,15.40
2018-04-13T11:54:08.461Z,15.40
2018-04-13T11:56:36.226Z,15.50
2018-04-13T11:59:04.153Z,15.40
2018-04-13T12:01:32.881Z,15.70
2018-04-13T12:04:00.641Z,15.70
2018-04-13T12:06:28.515Z,16.10
2018-04-13T12:08:56.458Z,15.90
2018-04-13T12:11:24.384Z,15.90
2018-04-13T12:13:52.237Z,16.40
2018-04-13T12:16:20.197Z,17.10
2018-04-13T12:18:48.112Z,17.30
2018-04-13T12:21:16.712Z,17.80
2018-04-13T12:23:44.640Z,17.80
2018-04-13T12:26:12.478Z,18.10
2018-04-13T12:28:40.272Z,18.70
2018-04-13T12:31:08.130Z,19.20
2018-04-13T12:33:36.067Z,18.80
2018-04-13T12:36:03.845Z,18.60
2018-04-13T12:38:31.781Z,18.30
2018-04-13T12:41:00.302Z,18.80
2018-04-13T12:43:28.183Z,18.80
2018-04-13T12:45:55.988Z,19.10
2018-04-13T12:48:24.594Z,19.70
2018-04-13T12:50:52.417Z,19.70
2018-04-13T12:53:20.255Z,20.30
2018-04-13T12:55:48.092Z,21.10
2018-04-13T12:58:15.933Z,21.80
2018-04-13T13:00:44.504Z,23.40
2018-04-13T13:03:12.305Z,23.30
2018-04-13T13:05:40.113Z,23.30
2018-04-13T13:08:07.948Z,22.60
2018-04-13T13:10:35.749Z,22.50
2018-04-13T13:13:03.565Z,22.90
2018-04-13T13:15:31.404Z,23.20
2018-04-13T13:17:59.947Z,22.60
2018-04-13T13:20:27.758Z,22.60
2018-04-13T13:22:56.367Z,22.00
2018-04-13T13:25:24.648Z,22.00
2018-04-13T13:27:52.475Z,21.70
2018-04-13T13:30:20.394Z,20.90
2018-04-13T13:32:48.161Z,19.40
2018-04-13T13:35:15.999Z,18.70
2018-04-13T13:37:43.909Z,18.10
2018-04-13T13:40:11.755Z,17.80
2018-04-13T13:42:39.605Z,17.80
2018-04-13T13:45:07.448Z,17.80
2018-04-13T13:47:36.136Z,18.30
2018-04-13T13:50:04.732Z,19.20
2018-04-13T13:52:32.650Z,19.20
2018-04-13T13:55:00.629Z,19.40
2018-04-13T13:57:28.454Z,20.00
2018-04-13T13:59:56.346Z,20.20
2018-04-13T14:02:24.231Z,20.20
2018-04-13T14:04:52.985Z,20.10
2018-04-13T14:07:20.914Z,20.20
2018-04-13T14:09:49.470Z,20.00
2018-04-13T14:12:17.231Z,20.00
2018-04-13T14:14:45.824Z,20.50
2018-04-13T14:17:13.613Z,20.50
2018-04-13T14:19:42.184Z,20.80
2018-04-13T14:22:10.025Z,20.80
2018-04-13T14:24:37.800Z,21.00
2018-04-13T14:27:05.644Z,21.00
2018-04-13T14:29:33.470Z,20.50
2018-04-13T14:32:01.334Z,20.00
2018-04-13T14:34:29.204Z,19.70
2018-04-13T14:36:57.801Z,19.50
2018-04-13T14:39:25.606Z,19.50
2018-04-13T14:41:53.381Z,19.20
2018-04-13T14:44:21.274Z,18.00
2018-04-13T14:46:50.297Z,17.30
2018-04-13T14:49:18.158Z,17.30
2018-04-13T14:51:46.046Z,17.80
2018-04-13T14:54:13.847Z,17.30
2018-04-13T14:56:41.617Z,17.10
2018-04-13T14:59:09.768Z,16.90
2018-04-13T15:01:37.543Z,16.70
2018-04-13T15:04:05.714Z,16.90
2018-04-13T15:06:33.566Z,17.20
2018-04-13T15:09:01.359Z,17.30
2018-04-13T15:11:29.103Z,17.40
2018-04-13T15:13:56.955Z,17.50
2018-04-13T15:16:24.752Z,18.20
2018-04-13T15:18:53.535Z,19.30
2018-04-13T15:21:21.434Z,19.40
2018-04-13T15:23:50.086Z,20.40
2018-04-13T15:26:17.929Z,20.40
2018-04-13T15:28:45.784Z,21.00
2018-04-13T15:31:13.705Z,21.40
2018-04-13T15:33:43.642Z,21.60
2018-04-13T15:36:11.507Z,21.50
2018-04-13T15:38:40.271Z,21.50
2018-04-13T15:41:08.843Z,21.40
2018-04-13T15:43:36.808Z,21.40
2018-04-13T15:46:09.778Z,21.70
2018-04-13T15:48:41.354Z,21.30
2018-04-13T15:51:11.828Z,19.80
2018-04-13T15:53:40.604Z,19.00
2018-04-13T15:56:08.401Z,19.00
2018-04-13T15:58:36.217Z,18.60
2018-04-13T16:01:04.712Z,17.40
2018-04-13T16:03:38.873Z,17.30
2018-04-13T16:06:06.935Z,17.30
2018-04-13T16:08:36.071Z,17.10
2018-04-13T16:11:03.900Z,16.70
2018-04-13T16:13:31.704Z,16.10
2018-04-13T16:15:59.451Z,15.80
2018-04-13T16:18:27.334Z,15.70
2018-04-13T16:20:55.131Z,15.60
2018-04-13T16:23:23.706Z,15.40
2018-04-13T16:25:52.318Z,15.30
2018-04-13T16:28:20.043Z,15.30
2018-04-13T16:30:47.982Z,15.30
2018-04-13T16:33:15.838Z,15.20
2018-04-13T16:35:43.646Z,15.10
2018-04-13T16:38:12.314Z,14.80
2018-04-13T16:40:40.116Z,14.80
2018-04-13T16:43:07.966Z,14.80
2018-04-13T16:45:36.514Z,14.90
2018-04-13T16:48:04.425Z,14.80
2018-04-13T16:50:33.089Z,14.80
2018-04-13T16:53:01.089Z,14.80
2018-04-13T16:55:28.986Z,14.70
2018-04-13T16:57:56.794Z,14.70
2018-04-13T17:00:24.883Z,14.60
2018-04-13T17:02:53.635Z,14.60
2018-04-13T17:05:21.541Z,14.60
2018-04-13T17:07:50.098Z,14.80
2018-04-13T17:10:17.971Z,14.80
2018-04-13T17:12:45.775Z,15.00
2018-04-13T17:15:13.601Z,15.10
2018-04-13T17:17:41.495Z,15.10
2018-04-13T17:20:10.058Z,15.00
2018-04-13T17:22:37.857Z,15.00
2018-04-13T17:25:05.742Z,14.90
2018-04-13T17:27:33.647Z,14.70
2018-04-13T17:30:01.554Z,14.70
2018-04-13T17:32:29.378Z,14.60
2018-04-13T17:34:57.280Z,14.50
2018-04-13T17:37:25.919Z,14.50
2018-04-13T17:39:53.811Z,14.50
2018-04-13T17:42:21.638Z,14.50
2018-04-13T17:44:50.784Z,14.40
2018-04-13T17:47:19.129Z,14.30
2018-04-13T17:49:46.984Z,14.10
2018-04-13T17:52:16.773Z,14.00
2018-04-13T17:54:44.825Z,14.00
2018-04-13T17:57:13.670Z,13.60
2018-04-13T17:59:41.557Z,13.60
2018-04-13T18:02:09.421Z,13.50
2018-04-13T18:04:37.232Z,13.50
2018-04-13T18:07:05.091Z,13.40
2018-04-13T18:09:32.808Z,13.30
2018-04-13T18:12:01.297Z,13.30
2018-04-13T18:14:29.032Z,13.30
2018-04-13T18:16:56.808Z,13.30
2018-04-13T18:19:24.721Z,13.20
2018-04-13T18:21:53.399Z,13.10
2018-04-13T18:24:22.058Z,13.00
2018-04-13T18:26:49.826Z,13.00
2018-04-13T18:29:18.650Z,12.50
2018-04-13T18:31:46.525Z,12.50
2018-04-13T18:34:14.299Z,12.40
2018-04-13T18:36:42.065Z,12.30
2018-04-13T18:39:10.117Z,12.10
2018-04-13T18:41:37.863Z,12.00
2018-04-13T18:44:06.357Z,12.00
2018-04-13T18:46:34.208Z,12.00
2018-04-13T18:49:01.980Z,12.00
2018-04-13T18:51:30.653Z,12.00
2018-04-13T18:53:58.571Z,12.00
2018-04-13T18:56:26.416Z,12.00
2018-04-13T18:58:55.198Z,11.90
2018-04-13T19:01:23.068Z,11.90
2018-04-13T19:03:51.042Z,11.80
2018-04-13T19:06:19.021Z,11.80
2018-04-13T19:08:46.909Z,11.70
2018-04-13T19:11:16.245Z,11.60
2018-04-13T19:13:45.056Z,11.40
2018-04-13T19:16:13.986Z,11.20
2018-04-13T19:18:43.731Z,11.20
2018-04-13T19:21:11.776Z,11.20
2018-04-13T19:23:44.542Z,11.10
2018-04-13T19:26:12.986Z,11.00
2018-04-13T19:28:40.742Z,10.90
2018-04-13T19:31:08.792Z,10.80
2018-04-13T19:33:36.541Z,10.60
2018-04-13T19:36:06.138Z,10.50
2018-04-13T19:38:35.001Z,10.40
2018-04-13T19:41:03.696Z,10.30
2018-04-13T19:43:31.512Z,10.20
2018-04-13T19:46:00.075Z,10.20
2018-04-13T19:48:27.810Z,10.10
2018-04-13T19:50:55.985Z,10.10
2018-04-13T19:53:24.537Z,10.00
2018-04-13T19:55:53.180Z,10.00
2018-04-13T19:58:21.057Z,9.90
2018-04-13T20:00:48.990Z,9.90
2018-04-13T20:03:16.822Z,9.80
2018-04-13T20:05:44.840Z,9.80
2018-04-13T20:08:13.462Z,9.80
2018-04-13T20:10:41.604Z,9.80
2018-04-13T20:13:09.439Z,9.60
2018-04-13T20:15:38.140Z,9.50
2018-04-13T20:18:06.934Z,9.50
2018-04-13T20:20:34.789Z,9.50
2018-04-13T20:23:02.637Z,9.40
2018-04-13T20:25:31.373Z,9.30
2018-04-13T20:27:59.269Z,9.20
2018-04-13T20:30:27.238Z,9.20
2018-04-13T20:32:55.302Z,9.10
2018-04-13T20:35:23.193Z,9.10
2018-04-13T20:37:51.759Z,9.00
2018-04-13T20:40:19.469Z,9.00
2018-04-13T20:42:47.274Z,8.90
2018-04-13T20:45:15.289Z,8.90
2018-04-13T20:47:43.115Z,8.90
2018-04-13T20:50:10.894Z,8.80
2018-04-13T20:52:38.788Z,8.80
2018-04-13T20:55:07.351Z,8.80
2018-04-13T20:57:35.101Z,8.80
2018-04-13T21:00:02.945Z,8.70
2018-04-13T21:02:30.832Z,8.70
2018-04-13T21:04:58.655Z,8.60
2018-04-13T21:07:26.564Z,8.60
2018-04-13T21:09:54.394Z,8.50
2018-04-13T21:12:22.142Z,8.50
2018-04-13T21:14:49.979Z,8.40
2018-04-13T21:17:18.633Z,8.40
2018-04-13T21:19:46.462Z,8.40
2018-04-13T21:22:14.422Z,8.30
2018-04-13T21:24:42.925Z,8.30
2018-04-13T21:27:10.685Z,8.30
2018-04-13T21:29:38.499Z,8.20
2018-04-13T21:32:06.258Z,8.10
2018-04-13T21:34:34.088Z,8.00
2018-04-13T21:37:01.898Z,7.90
2018-04-13T21:39:29.752Z,7.80
2018-04-13T21:41:57.573Z,7.70
2018-04-13T21:44:25.394Z,7.60
2018-04-13T21:46:53.201Z,7.50
2018-04-13T21:49:20.946Z,7.50
2018-04-13T21:51:49.680Z,7.40
2018-04-13T21:54:17.509Z,7.40
2018-04-13T21:56:46.029Z,7.20
2018-04-13T21:59:13.903Z,7.20
2018-04-13T22:01:41.702Z,7.20
2018-04-13T22:04:09.438Z,7.20
2018-04-13T22:06:37.293Z,7.10
2018-04-13T22:09:05.077Z,7.10
2018-04-13T22:11:32.917Z,7.10
2018-04-13T22:14:12.653Z,7.10
2018-04-13T22:16:40.418Z,7.00
2018-04-13T22:19:08.222Z,7.00
2018-04-13T22:21:36.020Z,7.00
2018-04-13T22:24:04.581Z,7.00
2018-04-13T22:26:32.550Z,7.00
2018-04-13T22:29:00.368Z,7.00
2018-04-13T22:31:28.165Z,7.00
2018-04-13T22:33:57.130Z,7.00
2018-04-13T22:36:24.951Z,6.90
2018-04-13T22:38:53.535Z,6.80
2018-04-13T22:41:21.417Z,6.80
2018-04-13T22:43:50.042Z,6.70
2018-04-13T22:46:17.913Z,6.70
2018-04-13T22:48:45.653Z,6.70
2018-04-13T22:51:13.489Z,6.60
2018-04-13T22:53:41.261Z,6.60
2018-04-13T22:56:09.832Z,6.50
2018-04-13T22:58:38.616Z,6.50
2018-04-13T23:01:07.129Z,6.50
2018-04-13T23:03:34.877Z,6.50
2018-04-13T23:06:06.289Z,6.40
2018-04-13T23:08:34.061Z,6.40
2018-04-13T23:11:01.773Z,6.40
2018-04-13T23:13:29.578Z,6.40
2018-04-13T23:15:57.408Z,6.40
2018-04-13T23:18:25.222Z,6.40
2018-04-13T23:20:53.016Z,6.30
2018-04-13T23:23:21.523Z,6.30
2018-04-13T23:25:49.405Z,6.20
2018-04-13T23:28:17.212Z,6.20
2018-04-13T23:30:45.159Z,6.20
2018-04-13T23:33:12.902Z,6.20
2018-04-13T23:35:40.754Z,6.20
2018-04-13T23:38:08.500Z,6.30
2018-04-13T23:40:36.330Z,6.30
2018-04-13T23:43:04.253Z,6.30
2018-04-13T23:45:32.054Z,6.30
2018-04-13T23:47:59.843Z,6.30
2018-04-13T23:50:27.673Z,6.40
2018-04-13T23:52:55.414Z,6.40
2018-04-13T23:55:23.188Z,6.30
2018-04-13T23:57:51.083Z,6.30
